sensor_id;sensor_type;location;lat;lon;timestamp;temperature;humidity
40816;DHT22;26535;48.788;9.214;2023-03-01T00:01:04;-0.60;99.90
40816;DHT22;26535;48.788;9.214;2023-03-01T00:03:30;-0.60;99.90
40816;DHT22;26535;48.788;9.214;2023-03-01T00:05:57;-0.60;99.90
40816;DHT22;26535;48.788;9.214;2023-03-01T00:08:27;-0.60;99.90
40816;DHT22;26535;48.788;9.214;2023-03-01T00:13:34;-0.60;99.90
40816;DHT22;26535;48.788;9.214;2023-03-01T00:16:06;-0.60;99.90
40816;DHT22;26535;48.788;9.214;2023-03-01T00:18:38;-0.50;99.90
40816;DHT22;26535;48.788;9.214;2023-03-01T00:21:04;-0.50;99.90
40816;DHT22;26535;48.788;9.214;2023-03-01T00:23:31;-0.40;99.90
40816;DHT22;26535;48.788;9.214;2023-03-01T00:25:57;-0.50;99.90
40816;DHT22;26535;48.788;9.214;2023-03-01T00:28:23;-0.50;99.90
40816;DHT22;26535;48.788;9.214;2023-03-01T06:01:46;1.30;98.40
40816;DHT22;26535;48.788;9.214;2023-03-01T06:04:12;1.30;98.30
40816;DHT22;26535;48.788;9.214;2023-03-01T06:06:38;1.30;98.50
40816;DHT22;26535;48.788;9.214;2023-03-01T06:09:05;1.30;98.40
40816;DHT22;26535;48.788;9.214;2023-03-01T06:11:34;1.30;98.40
40816;DHT22;26535;48.788;9.214;2023-03-01T06:14:00;1.30;98.70
40816;DHT22;26535;48.788;9.214;2023-03-01T06:16:27;1.40;98.10
40816;DHT22;26535;48.788;9.214;2023-03-01T06:18:52;1.40;98.20
40816;DHT22;26535;48.788;9.214;2023-03-01T06:21:18;1.40;98.30
40816;DHT22;26535;48.788;9.214;2023-03-01T06:23:44;1.40;98.50
40816;DHT22;26535;48.788;9.214;2023-03-01T06:26:09;1.40;98.40
40816;DHT22;26535;48.788;9.214;2023-03-01T06:28:35;1.40;98.30
40816;DHT22;26535;48.788;9.214;2023-03-01T06:31:02;1.40;98.20
40816;DHT22;26535;48.788;9.214;2023-03-01T06:33:27;1.30;98.20
40816;DHT22;26535;48.788;9.214;2023-03-01T06:35:56;1.30;98.30
40816;DHT22;26535;48.788;9.214;2023-03-01T06:38:24;1.40;98.40
40816;DHT22;26535;48.788;9.214;2023-03-01T06:40:53;1.40;98.60
40816;DHT22;26535;48.788;9.214;2023-03-01T06:43:20;1.50;98.40
40816;DHT22;26535;48.788;9.214;2023-03-01T06:45:46;1.60;98.30
40816;DHT22;26535;48.788;9.214;2023-03-01T06:48:12;1.60;97.50
40816;DHT22;26535;48.788;9.214;2023-03-01T06:50:41;1.50;97.50
40816;DHT22;26535;48.788;9.214;2023-03-01T06:53:06;1.60;97.60
40816;DHT22;26535;48.788;9.214;2023-03-01T06:55:32;1.60;97.70
40816;DHT22;26535;48.788;9.214;2023-03-01T06:57:59;1.70;97.30
40816;DHT22;26535;48.788;9.214;2023-03-01T07:00:26;1.70;97.20
40816;DHT22;26535;48.788;9.214;2023-03-01T07:02:52;1.70;97.40
40816;DHT22;26535;48.788;9.214;2023-03-01T07:05:18;1.70;97.30
40816;DHT22;26535;48.788;9.214;2023-03-01T07:07:44;1.60;97.60
40816;DHT22;26535;48.788;9.214;2023-03-01T07:10:10;1.60;97.50
40816;DHT22;26535;48.788;9.214;2023-03-01T07:12:37;1.50;97.40
40816;DHT22;26535;48.788;9.214;2023-03-01T07:15:03;1.40;97.80
40816;DHT22;26535;48.788;9.214;2023-03-01T07:17:29;1.30;97.90
40816;DHT22;26535;48.788;9.214;2023-03-01T07:19:56;1.30;97.90
40816;DHT22;26535;48.788;9.214;2023-03-01T07:22:21;1.30;98.00
40816;DHT22;26535;48.788;9.214;2023-03-01T07:24:47;1.30;98.20
40816;DHT22;26535;48.788;9.214;2023-03-01T07:27:13;1.30;97.90
40816;DHT22;26535;48.788;9.214;2023-03-01T07:29:39;1.20;98.00
40816;DHT22;26535;48.788;9.214;2023-03-01T07:32:06;1.20;98.10
40816;DHT22;26535;48.788;9.214;2023-03-01T07:34:32;1.30;97.90
40816;DHT22;26535;48.788;9.214;2023-03-01T07:36:58;1.40;97.70
40816;DHT22;26535;48.788;9.214;2023-03-01T07:39:23;1.40;97.90
40816;DHT22;26535;48.788;9.214;2023-03-01T07:41:50;1.40;97.80
40816;DHT22;26535;48.788;9.214;2023-03-01T07:44:20;1.50;97.60
40816;DHT22;26535;48.788;9.214;2023-03-01T07:46:46;1.50;97.50
40816;DHT22;26535;48.788;9.214;2023-03-01T07:49:11;1.50;97.30
40816;DHT22;26535;48.788;9.214;2023-03-01T07:51:37;1.60;97.60
40816;DHT22;26535;48.788;9.214;2023-03-01T07:54:03;1.70;97.30
40816;DHT22;26535;48.788;9.214;2023-03-01T07:56:29;1.70;97.30
40816;DHT22;26535;48.788;9.214;2023-03-01T07:58:55;1.80;97.00
40816;DHT22;26535;48.788;9.214;2023-03-01T08:01:21;1.90;96.90
40816;DHT22;26535;48.788;9.214;2023-03-01T08:03:47;1.90;96.80
40816;DHT22;26535;48.788;9.214;2023-03-01T08:06:17;2.00;96.60
40816;DHT22;26535;48.788;9.214;2023-03-01T08:08:43;2.20;96.40
40816;DHT22;26535;48.788;9.214;2023-03-01T08:11:13;2.20;96.30
40816;DHT22;26535;48.788;9.214;2023-03-01T08:13:40;2.20;96.00
40816;DHT22;26535;48.788;9.214;2023-03-01T08:16:09;2.20;96.10
40816;DHT22;26535;48.788;9.214;2023-03-01T08:18:35;2.20;96.10
40816;DHT22;26535;48.788;9.214;2023-03-01T08:21:07;2.30;96.10
40816;DHT22;26535;48.788;9.214;2023-03-01T08:23:33;2.40;95.90
40816;DHT22;26535;48.788;9.214;2023-03-01T08:26:05;2.40;95.80
40816;DHT22;26535;48.788;9.214;2023-03-01T08:28:32;2.50;95.70
40816;DHT22;26535;48.788;9.214;2023-03-01T08:30:57;2.50;95.30
40816;DHT22;26535;48.788;9.214;2023-03-01T08:33:23;2.60;95.40
40816;DHT22;26535;48.788;9.214;2023-03-01T08:35:49;2.50;95.30
40816;DHT22;26535;48.788;9.214;2023-03-01T08:38:14;2.60;95.20
40816;DHT22;26535;48.788;9.214;2023-03-01T08:40:40;2.70;95.20
40816;DHT22;26535;48.788;9.214;2023-03-01T08:43:06;2.70;94.90
40816;DHT22;26535;48.788;9.214;2023-03-01T08:45:31;2.70;94.80
40816;DHT22;26535;48.788;9.214;2023-03-01T08:47:57;2.70;95.00
40816;DHT22;26535;48.788;9.214;2023-03-01T08:50:23;2.80;95.00
40816;DHT22;26535;48.788;9.214;2023-03-01T08:52:50;2.80;94.70
40816;DHT22;26535;48.788;9.214;2023-03-01T08:55:16;2.80;94.80
40816;DHT22;26535;48.788;9.214;2023-03-01T08:57:43;2.90;94.50
40816;DHT22;26535;48.788;9.214;2023-03-01T09:00:10;2.80;94.40
40816;DHT22;26535;48.788;9.214;2023-03-01T09:02:37;2.90;94.40
40816;DHT22;26535;48.788;9.214;2023-03-01T09:05:03;2.90;94.50
40816;DHT22;26535;48.788;9.214;2023-03-01T09:07:29;3.00;94.30
40816;DHT22;26535;48.788;9.214;2023-03-01T09:09:54;3.20;94.30
40816;DHT22;26535;48.788;9.214;2023-03-01T09:12:21;3.40;93.80
40816;DHT22;26535;48.788;9.214;2023-03-01T09:14:46;3.50;93.60
40816;DHT22;26535;48.788;9.214;2023-03-01T09:17:12;3.40;93.30
40816;DHT22;26535;48.788;9.214;2023-03-01T09:19:38;3.40;93.40
40816;DHT22;26535;48.788;9.214;2023-03-01T09:22:06;3.50;93.40
40816;DHT22;26535;48.788;9.214;2023-03-01T09:24:32;3.50;93.20
40816;DHT22;26535;48.788;9.214;2023-03-01T09:26:57;3.50;93.10
40816;DHT22;26535;48.788;9.214;2023-03-01T09:29:23;3.60;93.30
40816;DHT22;26535;48.788;9.214;2023-03-01T09:31:49;3.70;93.00
40816;DHT22;26535;48.788;9.214;2023-03-01T09:34:15;3.80;92.70
40816;DHT22;26535;48.788;9.214;2023-03-01T09:36:44;3.90;92.60
40816;DHT22;26535;48.788;9.214;2023-03-01T09:39:10;4.00;92.60
40816;DHT22;26535;48.788;9.214;2023-03-01T09:42:00;4.00;92.40
40816;DHT22;26535;48.788;9.214;2023-03-01T09:44:49;4.20;92.20
40816;DHT22;26535;48.788;9.214;2023-03-01T09:47:30;4.30;92.10
40816;DHT22;26535;48.788;9.214;2023-03-01T09:52:59;4.50;91.90
40816;DHT22;26535;48.788;9.214;2023-03-01T09:55:34;4.60;91.40
40816;DHT22;26535;48.788;9.214;2023-03-01T10:00:59;5.00;90.10
40816;DHT22;26535;48.788;9.214;2023-03-01T10:03:43;5.10;90.30
40816;DHT22;26535;48.788;9.214;2023-03-01T10:06:19;5.20;89.00
40816;DHT22;26535;48.788;9.214;2023-03-01T10:09:00;5.30;89.10
40816;DHT22;26535;48.788;9.214;2023-03-01T10:11:37;5.40;88.90
40816;DHT22;26535;48.788;9.214;2023-03-01T10:14:42;5.50;87.90
40816;DHT22;26535;48.788;9.214;2023-03-01T10:19:46;5.60;88.10
40816;DHT22;26535;48.788;9.214;2023-03-01T10:22:19;5.80;86.70
40816;DHT22;26535;48.788;9.214;2023-03-01T10:24:47;5.80;86.70
40816;DHT22;26535;48.788;9.214;2023-03-01T10:27:29;5.80;87.20
40816;DHT22;26535;48.788;9.214;2023-03-01T10:32:32;6.00;86.50
40816;DHT22;26535;48.788;9.214;2023-03-01T10:34:58;6.10;85.60
40816;DHT22;26535;48.788;9.214;2023-03-01T10:37:24;6.10;86.40
40816;DHT22;26535;48.788;9.214;2023-03-01T10:42:29;6.40;85.30
40816;DHT22;26535;48.788;9.214;2023-03-01T10:44:56;6.50;84.50
40816;DHT22;26535;48.788;9.214;2023-03-01T10:47:24;6.70;84.50
40816;DHT22;26535;48.788;9.214;2023-03-01T10:49:51;6.70;83.50
40816;DHT22;26535;48.788;9.214;2023-03-01T10:52:23;6.90;83.60
40816;DHT22;26535;48.788;9.214;2023-03-01T10:54:58;6.90;82.70
40816;DHT22;26535;48.788;9.214;2023-03-01T10:57:34;7.00;82.30
40816;DHT22;26535;48.788;9.214;2023-03-01T11:02:42;7.30;82.00
40816;DHT22;26535;48.788;9.214;2023-03-01T11:07:51;7.90;80.10
40816;DHT22;26535;48.788;9.214;2023-03-01T11:10:20;8.20;79.30
40816;DHT22;26535;48.788;9.214;2023-03-01T11:12:47;8.30;78.60
40816;DHT22;26535;48.788;9.214;2023-03-01T11:15:27;8.50;79.20
40816;DHT22;26535;48.788;9.214;2023-03-01T11:17:54;9.00;79.20
40816;DHT22;26535;48.788;9.214;2023-03-01T11:20:32;9.60;76.20
40816;DHT22;26535;48.788;9.214;2023-03-01T11:23:03;10.00;75.50
40816;DHT22;26535;48.788;9.214;2023-03-01T11:25:39;10.70;73.30
40816;DHT22;26535;48.788;9.214;2023-03-01T11:28:14;11.40;71.00
40816;DHT22;26535;48.788;9.214;2023-03-01T11:36:05;12.80;68.00
40816;DHT22;26535;48.788;9.214;2023-03-01T11:38:34;13.20;66.10
40816;DHT22;26535;48.788;9.214;2023-03-01T11:41:21;13.00;65.70
40816;DHT22;26535;48.788;9.214;2023-03-01T11:51:53;14.70;62.20
40816;DHT22;26535;48.788;9.214;2023-03-01T12:00:25;15.70;59.70
40816;DHT22;26535;48.788;9.214;2023-03-01T12:08:51;16.20;57.70
40816;DHT22;26535;48.788;9.214;2023-03-01T12:11:48;16.70;59.70
40816;DHT22;26535;48.788;9.214;2023-03-01T12:20:34;17.00;56.30
40816;DHT22;26535;48.788;9.214;2023-03-01T12:28:48;18.80;54.30
40816;DHT22;26535;48.788;9.214;2023-03-01T12:34:12;17.80;54.20
40816;DHT22;26535;48.788;9.214;2023-03-01T12:39:43;17.80;56.20
40816;DHT22;26535;48.788;9.214;2023-03-01T12:42:24;18.80;54.40
40816;DHT22;26535;48.788;9.214;2023-03-01T12:47:44;17.90;53.70
40816;DHT22;26535;48.788;9.214;2023-03-01T12:53:07;19.00;53.50
40816;DHT22;26535;48.788;9.214;2023-03-01T12:55:43;19.90;52.10
40816;DHT22;26535;48.788;9.214;2023-03-01T13:17:51;21.00;50.20
40816;DHT22;26535;48.788;9.214;2023-03-01T13:31:08;22.40;47.80
40816;DHT22;26535;48.788;9.214;2023-03-01T13:33:47;22.20;47.00
40816;DHT22;26535;48.788;9.214;2023-03-01T13:46:50;20.80;48.60
40816;DHT22;26535;48.788;9.214;2023-03-01T13:49:22;20.70;48.60
40816;DHT22;26535;48.788;9.214;2023-03-01T13:51:50;20.30;49.20
40816;DHT22;26535;48.788;9.214;2023-03-01T13:54:39;19.80;49.80
40816;DHT22;26535;48.788;9.214;2023-03-01T13:57:04;19.90;49.60
40816;DHT22;26535;48.788;9.214;2023-03-01T13:59:30;19.40;50.30
40816;DHT22;26535;48.788;9.214;2023-03-01T14:01:59;19.40;50.40
40816;DHT22;26535;48.788;9.214;2023-03-01T14:04:27;19.80;50.00
40816;DHT22;26535;48.788;9.214;2023-03-01T14:07:29;20.30;49.60
40816;DHT22;26535;48.788;9.214;2023-03-01T14:10:05;20.60;49.30
40816;DHT22;26535;48.788;9.214;2023-03-01T14:15:35;20.30;49.40
40816;DHT22;26535;48.788;9.214;2023-03-01T14:18:23;19.60;49.80
40816;DHT22;26535;48.788;9.214;2023-03-01T14:20:51;20.10;49.60
40816;DHT22;26535;48.788;9.214;2023-03-01T14:23:23;19.90;49.80
40816;DHT22;26535;48.788;9.214;2023-03-01T14:25:52;19.90;49.80
40816;DHT22;26535;48.788;9.214;2023-03-01T14:28:30;19.80;50.00
40816;DHT22;26535;48.788;9.214;2023-03-01T14:31:00;19.90;49.90
40816;DHT22;26535;48.788;9.214;2023-03-01T14:33:32;20.20;49.20
40816;DHT22;26535;48.788;9.214;2023-03-01T14:36:09;20.50;49.40
40816;DHT22;26535;48.788;9.214;2023-03-01T14:38:41;20.50;49.50
40816;DHT22;26535;48.788;9.214;2023-03-01T14:41:18;20.20;49.30
40816;DHT22;26535;48.788;9.214;2023-03-01T14:44:07;19.80;50.20
40816;DHT22;26535;48.788;9.214;2023-03-01T14:46:34;20.30;49.40
40816;DHT22;26535;48.788;9.214;2023-03-01T14:49:25;19.70;50.10
40816;DHT22;26535;48.788;9.214;2023-03-01T14:52:02;19.90;49.70
40816;DHT22;26535;48.788;9.214;2023-03-01T14:54:50;19.30;50.20
40816;DHT22;26535;48.788;9.214;2023-03-01T14:57:25;19.40;50.40
40816;DHT22;26535;48.788;9.214;2023-03-01T14:59:53;19.40;50.30
40816;DHT22;26535;48.788;9.214;2023-03-01T15:02:23;19.40;50.50
40816;DHT22;26535;48.788;9.214;2023-03-01T15:04:51;19.40;50.40
40816;DHT22;26535;48.788;9.214;2023-03-01T15:07:18;19.10;50.70
40816;DHT22;26535;48.788;9.214;2023-03-01T15:09:45;18.60;51.20
40816;DHT22;26535;48.788;9.214;2023-03-01T15:12:36;18.40;51.60
40816;DHT22;26535;48.788;9.214;2023-03-01T15:15:20;18.80;51.40
40816;DHT22;26535;48.788;9.214;2023-03-01T15:17:52;18.80;51.00
40816;DHT22;26535;48.788;9.214;2023-03-01T15:20:21;18.20;51.60
40816;DHT22;26535;48.788;9.214;2023-03-01T15:22:51;18.10;52.10
40816;DHT22;26535;48.788;9.214;2023-03-01T15:25:26;18.20;51.90
40816;DHT22;26535;48.788;9.214;2023-03-01T15:27:54;17.90;52.30
40816;DHT22;26535;48.788;9.214;2023-03-01T15:30:23;17.40;52.80
40816;DHT22;26535;48.788;9.214;2023-03-01T15:35:49;17.40;53.20
40816;DHT22;26535;48.788;9.214;2023-03-01T15:38:29;17.80;52.70
40816;DHT22;26535;48.788;9.214;2023-03-01T15:40:56;17.20;52.70
40816;DHT22;26535;48.788;9.214;2023-03-01T15:43:42;16.80;53.40
40816;DHT22;26535;48.788;9.214;2023-03-01T15:48:51;15.70;54.60
40816;DHT22;26535;48.788;9.214;2023-03-01T15:51:19;15.40;55.10
40816;DHT22;26535;48.788;9.214;2023-03-01T15:53:51;15.60;55.10
40816;DHT22;26535;48.788;9.214;2023-03-01T15:56:18;15.50;55.10
40816;DHT22;26535;48.788;9.214;2023-03-01T15:58:44;15.30;55.20
40816;DHT22;26535;48.788;9.214;2023-03-01T16:01:16;14.70;56.10
40816;DHT22;26535;48.788;9.214;2023-03-01T16:03:43;14.50;56.40
40816;DHT22;26535;48.788;9.214;2023-03-01T16:06:10;14.30;56.50
40816;DHT22;26535;48.788;9.214;2023-03-01T16:08:37;13.90;57.00
40816;DHT22;26535;48.788;9.214;2023-03-01T16:11:09;13.80;57.40
40816;DHT22;26535;48.788;9.214;2023-03-01T16:13:39;13.40;58.30
40816;DHT22;26535;48.788;9.214;2023-03-01T16:16:05;13.40;58.50
40816;DHT22;26535;48.788;9.214;2023-03-01T16:18:30;13.30;58.30
40816;DHT22;26535;48.788;9.214;2023-03-01T16:20:56;13.40;58.40
40816;DHT22;26535;48.788;9.214;2023-03-01T16:23:22;13.20;58.80
40816;DHT22;26535;48.788;9.214;2023-03-01T16:25:50;12.90;59.10
40816;DHT22;26535;48.788;9.214;2023-03-01T16:28:16;12.70;59.50
40816;DHT22;26535;48.788;9.214;2023-03-01T16:30:46;12.20;60.00
40816;DHT22;26535;48.788;9.214;2023-03-01T16:33:13;12.00;60.60
40816;DHT22;26535;48.788;9.214;2023-03-01T16:35:40;11.70;61.40
40816;DHT22;26535;48.788;9.214;2023-03-01T16:38:05;10.90;62.90
40816;DHT22;26535;48.788;9.214;2023-03-01T16:40:31;10.30;64.50
40816;DHT22;26535;48.788;9.214;2023-03-01T16:42:58;9.80;66.20
40816;DHT22;26535;48.788;9.214;2023-03-01T16:45:29;9.40;67.10
40816;DHT22;26535;48.788;9.214;2023-03-01T16:47:58;9.10;67.90
40816;DHT22;26535;48.788;9.214;2023-03-01T16:50:24;8.90;68.40
40816;DHT22;26535;48.788;9.214;2023-03-01T16:52:51;8.70;69.70
40816;DHT22;26535;48.788;9.214;2023-03-01T16:55:16;8.60;69.60
40816;DHT22;26535;48.788;9.214;2023-03-01T16:57:42;8.50;70.20
40816;DHT22;26535;48.788;9.214;2023-03-01T17:00:11;8.40;70.30
40816;DHT22;26535;48.788;9.214;2023-03-01T17:02:38;8.30;70.80
40816;DHT22;26535;48.788;9.214;2023-03-01T17:05:05;8.10;71.20
40816;DHT22;26535;48.788;9.214;2023-03-01T17:07:32;8.00;71.50
40816;DHT22;26535;48.788;9.214;2023-03-01T17:10:03;8.00;72.00
40816;DHT22;26535;48.788;9.214;2023-03-01T17:12:29;7.80;72.30
40816;DHT22;26535;48.788;9.214;2023-03-01T17:14:55;7.70;73.00
40816;DHT22;26535;48.788;9.214;2023-03-01T17:17:21;7.60;73.10
40816;DHT22;26535;48.788;9.214;2023-03-01T17:19:47;7.50;73.60
40816;DHT22;26535;48.788;9.214;2023-03-01T17:22:13;7.40;73.90
40816;DHT22;26535;48.788;9.214;2023-03-01T17:24:39;7.20;74.70
40816;DHT22;26535;48.788;9.214;2023-03-01T17:27:06;7.10;75.10
40816;DHT22;26535;48.788;9.214;2023-03-01T17:29:32;7.00;75.60
40816;DHT22;26535;48.788;9.214;2023-03-01T17:31:58;6.90;76.60
40816;DHT22;26535;48.788;9.214;2023-03-01T17:34:25;6.80;76.60
40816;DHT22;26535;48.788;9.214;2023-03-01T17:36:51;6.70;77.00
40816;DHT22;26535;48.788;9.214;2023-03-01T17:39:18;6.60;77.60
40816;DHT22;26535;48.788;9.214;2023-03-01T17:41:51;6.60;77.60
40816;DHT22;26535;48.788;9.214;2023-03-01T17:44:17;6.50;77.70
40816;DHT22;26535;48.788;9.214;2023-03-01T17:46:42;6.40;78.80
40816;DHT22;26535;48.788;9.214;2023-03-01T17:49:08;6.30;78.80
40816;DHT22;26535;48.788;9.214;2023-03-01T17:51:36;6.20;78.90
40816;DHT22;26535;48.788;9.214;2023-03-01T17:54:02;6.10;79.80
40816;DHT22;26535;48.788;9.214;2023-03-01T17:56:27;6.10;79.90
40816;DHT22;26535;48.788;9.214;2023-03-01T17:58:54;6.00;80.40
40816;DHT22;26535;48.788;9.214;2023-03-01T18:04:00;6.00;80.40
40816;DHT22;26535;48.788;9.214;2023-03-01T18:06:27;5.90;81.00
40816;DHT22;26535;48.788;9.214;2023-03-01T18:08:54;5.80;81.20
40816;DHT22;26535;48.788;9.214;2023-03-01T18:11:23;5.80;81.20
40816;DHT22;26535;48.788;9.214;2023-03-01T18:13:49;5.70;81.80
40816;DHT22;26535;48.788;9.214;2023-03-01T18:16:18;5.60;81.90
40816;DHT22;26535;48.788;9.214;2023-03-01T18:18:44;5.60;82.50
40816;DHT22;26535;48.788;9.214;2023-03-01T18:21:10;5.50;82.70
40816;DHT22;26535;48.788;9.214;2023-03-01T18:23:37;5.40;82.50
40816;DHT22;26535;48.788;9.214;2023-03-01T18:26:09;5.30;82.90
40816;DHT22;26535;48.788;9.214;2023-03-01T18:28:35;5.20;83.20
40816;DHT22;26535;48.788;9.214;2023-03-01T18:31:07;5.20;83.50
40816;DHT22;26535;48.788;9.214;2023-03-01T18:33:35;5.10;83.80
40816;DHT22;26535;48.788;9.214;2023-03-01T18:36:02;5.00;84.00
40816;DHT22;26535;48.788;9.214;2023-03-01T18:38:28;5.00;84.20
40816;DHT22;26535;48.788;9.214;2023-03-01T18:40:56;4.90;84.80
40816;DHT22;26535;48.788;9.214;2023-03-01T18:43:23;4.80;85.00
40816;DHT22;26535;48.788;9.214;2023-03-01T18:45:54;4.80;85.10
40816;DHT22;26535;48.788;9.214;2023-03-01T18:48:20;4.70;85.70
40816;DHT22;26535;48.788;9.214;2023-03-01T18:50:46;4.70;86.10
40816;DHT22;26535;48.788;9.214;2023-03-01T18:53:11;4.70;86.10
40816;DHT22;26535;48.788;9.214;2023-03-01T18:55:37;4.70;86.20
40816;DHT22;26535;48.788;9.214;2023-03-01T18:58:04;4.60;86.30
40816;DHT22;26535;48.788;9.214;2023-03-01T19:00:31;4.60;86.60
40816;DHT22;26535;48.788;9.214;2023-03-01T19:02:58;4.60;86.70
40816;DHT22;26535;48.788;9.214;2023-03-01T19:05:26;4.50;86.90
40816;DHT22;26535;48.788;9.214;2023-03-01T19:07:51;4.60;87.10
40816;DHT22;26535;48.788;9.214;2023-03-01T19:10:17;4.60;87.40
40816;DHT22;26535;48.788;9.214;2023-03-01T19:12:44;4.60;87.30
40816;DHT22;26535;48.788;9.214;2023-03-01T19:15:10;4.50;87.50
40816;DHT22;26535;48.788;9.214;2023-03-01T19:17:36;4.50;87.60
40816;DHT22;26535;48.788;9.214;2023-03-01T19:20:02;4.60;88.10
40816;DHT22;26535;48.788;9.214;2023-03-01T19:22:28;4.60;88.70
40816;DHT22;26535;48.788;9.214;2023-03-01T19:24:53;4.60;88.00
40816;DHT22;26535;48.788;9.214;2023-03-01T19:27:19;4.50;88.10
40816;DHT22;26535;48.788;9.214;2023-03-01T19:29:45;4.40;88.20
40816;DHT22;26535;48.788;9.214;2023-03-01T19:32:10;4.30;88.60
40816;DHT22;26535;48.788;9.214;2023-03-01T19:34:36;4.20;89.80
40816;DHT22;26535;48.788;9.214;2023-03-01T19:37:04;4.20;90.20
40816;DHT22;26535;48.788;9.214;2023-03-01T19:39:30;4.00;89.70
40816;DHT22;26535;48.788;9.214;2023-03-01T19:41:56;4.00;90.10
40816;DHT22;26535;48.788;9.214;2023-03-01T19:44:21;3.90;90.30
40816;DHT22;26535;48.788;9.214;2023-03-01T19:46:51;3.90;90.50
40816;DHT22;26535;48.788;9.214;2023-03-01T19:49:18;3.80;90.50
40816;DHT22;26535;48.788;9.214;2023-03-01T19:51:44;3.70;90.90
40816;DHT22;26535;48.788;9.214;2023-03-01T19:54:10;3.60;90.60
40816;DHT22;26535;48.788;9.214;2023-03-01T19:56:37;3.60;90.70
40816;DHT22;26535;48.788;9.214;2023-03-01T19:59:03;3.60;91.00
40816;DHT22;26535;48.788;9.214;2023-03-01T20:01:31;3.60;91.00
40816;DHT22;26535;48.788;9.214;2023-03-01T20:03:59;3.50;91.10
40816;DHT22;26535;48.788;9.214;2023-03-01T20:06:25;3.60;91.60
40816;DHT22;26535;48.788;9.214;2023-03-01T20:08:51;3.60;91.30
40816;DHT22;26535;48.788;9.214;2023-03-01T20:11:18;3.60;91.40
40816;DHT22;26535;48.788;9.214;2023-03-01T20:13:44;3.60;91.40
40816;DHT22;26535;48.788;9.214;2023-03-01T20:16:10;3.60;91.50
40816;DHT22;26535;48.788;9.214;2023-03-01T20:18:36;3.70;91.50
40816;DHT22;26535;48.788;9.214;2023-03-01T20:21:03;3.80;91.50
40816;DHT22;26535;48.788;9.214;2023-03-01T20:23:28;3.80;91.30
40816;DHT22;26535;48.788;9.214;2023-03-01T20:26:08;3.90;91.20
40816;DHT22;26535;48.788;9.214;2023-03-01T20:28:35;4.00;91.10
40816;DHT22;26535;48.788;9.214;2023-03-01T20:31:07;4.10;91.10
40816;DHT22;26535;48.788;9.214;2023-03-01T20:33:33;4.10;90.80
40816;DHT22;26535;48.788;9.214;2023-03-01T20:35:59;4.10;90.80
40816;DHT22;26535;48.788;9.214;2023-03-01T20:38:25;4.20;90.90
40816;DHT22;26535;48.788;9.214;2023-03-01T20:41:02;4.20;90.90
40816;DHT22;26535;48.788;9.214;2023-03-01T20:43:29;4.20;90.80
40816;DHT22;26535;48.788;9.214;2023-03-01T20:45:55;4.20;90.80
40816;DHT22;26535;48.788;9.214;2023-03-01T20:48:21;4.10;90.80
40816;DHT22;26535;48.788;9.214;2023-03-01T20:50:46;4.10;90.90
40816;DHT22;26535;48.788;9.214;2023-03-01T20:53:12;4.00;91.00
40816;DHT22;26535;48.788;9.214;2023-03-01T20:55:38;4.00;91.00
40816;DHT22;26535;48.788;9.214;2023-03-01T20:58:04;4.00;91.00
40816;DHT22;26535;48.788;9.214;2023-03-01T21:00:29;4.00;91.10
40816;DHT22;26535;48.788;9.214;2023-03-01T21:02:55;4.00;91.10
40816;DHT22;26535;48.788;9.214;2023-03-01T21:05:21;3.90;91.20
40816;DHT22;26535;48.788;9.214;2023-03-01T21:07:48;3.90;91.40
40816;DHT22;26535;48.788;9.214;2023-03-01T21:10:14;3.80;91.50
40816;DHT22;26535;48.788;9.214;2023-03-01T21:12:40;3.80;91.60
40816;DHT22;26535;48.788;9.214;2023-03-01T21:15:06;3.80;91.80
40816;DHT22;26535;48.788;9.214;2023-03-01T21:17:32;3.80;91.90
40816;DHT22;26535;48.788;9.214;2023-03-01T21:19:58;3.70;91.90
40816;DHT22;26535;48.788;9.214;2023-03-01T21:22:23;3.70;92.00
40816;DHT22;26535;48.788;9.214;2023-03-01T21:24:50;3.60;92.10
40816;DHT22;26535;48.788;9.214;2023-03-01T21:27:16;3.60;92.30
40816;DHT22;26535;48.788;9.214;2023-03-01T21:29:44;3.50;92.50
40816;DHT22;26535;48.788;9.214;2023-03-01T21:32:11;3.50;92.50
40816;DHT22;26535;48.788;9.214;2023-03-01T21:34:37;3.40;92.80
40816;DHT22;26535;48.788;9.214;2023-03-01T21:37:05;3.40;93.10
40816;DHT22;26535;48.788;9.214;2023-03-01T21:39:32;3.30;93.00
40816;DHT22;26535;48.788;9.214;2023-03-01T21:41:59;3.30;93.10
40816;DHT22;26535;48.788;9.214;2023-03-01T21:44:26;3.30;93.10
40816;DHT22;26535;48.788;9.214;2023-03-01T21:46:54;3.30;93.10
40816;DHT22;26535;48.788;9.214;2023-03-01T21:49:20;3.30;93.40
40816;DHT22;26535;48.788;9.214;2023-03-01T21:51:47;3.30;93.40
40816;DHT22;26535;48.788;9.214;2023-03-01T21:54:14;3.20;93.60
40816;DHT22;26535;48.788;9.214;2023-03-01T21:56:41;3.20;93.60
40816;DHT22;26535;48.788;9.214;2023-03-01T21:59:12;3.10;93.80
40816;DHT22;26535;48.788;9.214;2023-03-01T22:01:38;3.00;94.00
40816;DHT22;26535;48.788;9.214;2023-03-01T22:04:04;3.00;94.30
40816;DHT22;26535;48.788;9.214;2023-03-01T22:06:34;3.00;94.40
40816;DHT22;26535;48.788;9.214;2023-03-01T22:09:06;3.00;94.40
40816;DHT22;26535;48.788;9.214;2023-03-01T22:11:34;2.90;94.60
40816;DHT22;26535;48.788;9.214;2023-03-01T22:14:00;2.90;94.70
40816;DHT22;26535;48.788;9.214;2023-03-01T22:16:30;2.90;94.70
40816;DHT22;26535;48.788;9.214;2023-03-01T22:18:57;2.80;94.90
40816;DHT22;26535;48.788;9.214;2023-03-01T22:21:24;2.70;95.00
40816;DHT22;26535;48.788;9.214;2023-03-01T22:23:51;2.80;95.20
40816;DHT22;26535;48.788;9.214;2023-03-01T22:26:38;2.70;95.40
40816;DHT22;26535;48.788;9.214;2023-03-01T22:29:07;2.70;95.40
40816;DHT22;26535;48.788;9.214;2023-03-01T22:31:33;2.60;95.60
40816;DHT22;26535;48.788;9.214;2023-03-01T22:34:00;2.70;95.60
40816;DHT22;26535;48.788;9.214;2023-03-01T22:36:26;2.60;95.60
40816;DHT22;26535;48.788;9.214;2023-03-01T22:38:52;2.60;95.70
40816;DHT22;26535;48.788;9.214;2023-03-01T22:41:28;2.60;95.80
40816;DHT22;26535;48.788;9.214;2023-03-01T22:43:55;2.60;95.90
40816;DHT22;26535;48.788;9.214;2023-03-01T22:46:21;2.50;96.10
40816;DHT22;26535;48.788;9.214;2023-03-01T22:48:47;2.50;96.10
40816;DHT22;26535;48.788;9.214;2023-03-01T22:51:15;2.40;96.20
40816;DHT22;26535;48.788;9.214;2023-03-01T22:53:41;2.40;96.60
40816;DHT22;26535;48.788;9.214;2023-03-01T22:56:19;2.30;96.70
40816;DHT22;26535;48.788;9.214;2023-03-01T22:58:45;2.30;96.80
40816;DHT22;26535;48.788;9.214;2023-03-01T23:01:19;2.30;96.90
40816;DHT22;26535;48.788;9.214;2023-03-01T23:03:46;2.40;96.90
40816;DHT22;26535;48.788;9.214;2023-03-01T23:06:13;2.30;97.00
40816;DHT22;26535;48.788;9.214;2023-03-01T23:08:39;2.20;97.10
40816;DHT22;26535;48.788;9.214;2023-03-01T23:11:13;2.20;97.30
40816;DHT22;26535;48.788;9.214;2023-03-01T23:13:40;2.10;97.50
40816;DHT22;26535;48.788;9.214;2023-03-01T23:16:06;2.20;97.60
40816;DHT22;26535;48.788;9.214;2023-03-01T23:18:32;2.20;97.70
40816;DHT22;26535;48.788;9.214;2023-03-01T23:20:58;2.20;97.80
40816;DHT22;26535;48.788;9.214;2023-03-01T23:23:24;2.10;97.70
40816;DHT22;26535;48.788;9.214;2023-03-01T23:25:57;2.20;97.90